Time;durP1;ratioP1;P1;durP2;ratioP2;P2;SDS_P1;SDS_P2;PMS_P1;PMS_P2;Temp;Humidity;BMP_temperature;BMP_pressure;BME280_temperature;BME280_humidity;BME280_pressure;Samples;Min_cycle;Max_cycle;Signal;HPM_P1;HPM_P2
2023/01/05 00:02:07;;;;;;;25.17;3.97;;;;;;;;;;6308884;22;20098;-85
2023/01/05 00:04:34;;;;;;;22.20;3.65;;;;;;;;;;6337012;22;20023;-85
2023/01/05 00:07:00;;;;;;;26.63;4.03;;;;;;;;;;6336725;22;20027;-85
2023/01/05 00:09:28;;;;;;;23.58;3.53;;;;;;;;;;6335268;22;20031;-87
2023/01/05 00:22:59;;;;;;;25.90;3.97;;;;;;;;;;6335688;22;20069;-86
2023/01/05 00:25:27;;;;;;;25.48;3.60;;;;;;;;;;6308121;22;20050;-84
2023/01/05 00:27:53;;;;;;;19.27;3.40;;;;;;;;;;6337305;22;20019;-84
2023/01/05 00:30:21;;;;;;;29.17;3.78;;;;;;;;;;6309616;22;20440;-86
2023/01/05 00:32:48;;;;;;;28.63;3.55;;;;;;;;;;6309253;22;20103;-85
2023/01/05 00:35:16;;;;;;;23.15;3.67;;;;;;;;;;6336908;22;20360;-85
2023/01/05 00:37:44;;;;;;;20.17;3.25;;;;;;;;;;6337586;22;20012;-85
2023/01/05 00:40:12;;;;;;;19.27;3.30;;;;;;;;;;6336630;22;20027;-85
2023/01/05 00:42:38;;;;;;;25.20;3.60;;;;;;;;;;6337514;22;20278;-85
2023/01/05 00:45:05;;;;;;;27.20;5.57;;;;;;;;;;6336047;22;20028;-84
2023/01/05 00:47:32;;;;;;;27.15;3.10;;;;;;;;;;6337764;22;20502;-85
2023/01/05 00:49:58;;;;;;;27.70;3.35;;;;;;;;;;6337435;22;20062;-86
2023/01/05 00:52:25;;;;;;;21.33;3.30;;;;;;;;;;6337520;22;20027;-86
2023/01/05 00:54:51;;;;;;;22.90;2.88;;;;;;;;;;6336940;22;20102;-84
2023/01/05 00:57:17;;;;;;;26.25;3.78;;;;;;;;;;6336580;22;20058;-85
2023/01/05 00:59:44;;;;;;;29.40;3.60;;;;;;;;;;6337612;22;20126;-86
2023/01/05 01:02:10;;;;;;;21.00;3.15;;;;;;;;;;6336828;22;20106;-85
2023/01/05 01:04:37;;;;;;;17.65;2.97;;;;;;;;;;6336478;22;20445;-85
2023/01/05 01:07:04;;;;;;;27.38;3.80;;;;;;;;;;6336700;22;20019;-85
2023/01/05 01:09:31;;;;;;;27.17;3.78;;;;;;;;;;6337237;22;20102;-85
2023/01/05 01:11:57;;;;;;;24.90;3.92;;;;;;;;;;6335391;22;20025;-85
2023/01/05 01:14:24;;;;;;;20.48;3.00;;;;;;;;;;6335478;22;20023;-87
2023/01/05 01:16:50;;;;;;;26.08;4.10;;;;;;;;;;6337042;22;20555;-85
2023/01/05 01:19:22;;;;;;;25.15;3.70;;;;;;;;;;6337131;22;20460;-85
2023/01/05 01:21:49;;;;;;;24.08;3.30;;;;;;;;;;6336394;22;20023;-85
2023/01/05 01:24:20;;;;;;;26.60;4.13;;;;;;;;;;6335500;22;20031;-86
2023/01/05 01:26:46;;;;;;;20.15;3.08;;;;;;;;;;6335900;22;20092;-85
2023/01/05 01:29:13;;;;;;;25.67;4.57;;;;;;;;;;6309302;22;20243;-85
2023/01/05 01:31:39;;;;;;;22.45;3.90;;;;;;;;;;6338163;22;20035;-84
2023/01/05 01:34:05;;;;;;;24.27;3.42;;;;;;;;;;6336483;22;20042;-84
2023/01/05 01:36:32;;;;;;;23.48;3.13;;;;;;;;;;6308771;22;20054;-85
2023/01/05 01:38:59;;;;;;;29.33;3.78;;;;;;;;;;6337040;22;20058;-85
2023/01/05 01:41:25;;;;;;;23.58;3.38;;;;;;;;;;6309118;22;20030;-85
2023/01/05 01:43:55;;;;;;;25.58;3.92;;;;;;;;;;6308307;22;20028;-85
2023/01/05 01:46:22;;;;;;;25.10;3.63;;;;;;;;;;6308020;22;20055;-85
2023/01/05 01:48:57;;;;;;;20.45;3.10;;;;;;;;;;6336013;22;20023;-85
2023/01/05 01:51:30;;;;;;;20.35;3.20;;;;;;;;;;6336253;22;20023;-84
2023/01/05 01:54:01;;;;;;;25.85;3.38;;;;;;;;;;6337325;22;20356;-85
2023/01/05 01:56:35;;;;;;;23.17;3.45;;;;;;;;;;6335881;22;20102;-87
2023/01/05 01:59:01;;;;;;;20.50;3.58;;;;;;;;;;6308370;22;20077;-85
2023/01/05 02:01:28;;;;;;;24.90;3.67;;;;;;;;;;6336608;22;20488;-86
2023/01/05 02:03:55;;;;;;;25.35;3.72;;;;;;;;;;6336382;22;20027;-84
2023/01/05 02:06:21;;;;;;;30.25;3.95;;;;;;;;;;6337081;22;20081;-84
2023/01/05 02:08:48;;;;;;;28.63;3.90;;;;;;;;;;6335496;22;20069;-85
2023/01/05 02:11:17;;;;;;;29.00;4.05;;;;;;;;;;6335187;22;20027;-85
2023/01/05 02:14:02;;;;;;;31.15;3.40;;;;;;;;;;6309696;22;20046;-86
2023/01/05 02:16:32;;;;;;;29.83;3.78;;;;;;;;;;6335632;22;20027;-85
2023/01/05 02:19:07;;;;;;;29.05;3.60;;;;;;;;;;6336763;22;20116;-85
2023/01/05 02:21:39;;;;;;;26.02;3.35;;;;;;;;;;6336474;22;20023;-84
2023/01/05 02:24:20;;;;;;;18.63;3.17;;;;;;;;;;6308339;22;20155;-85
2023/01/05 02:26:47;;;;;;;;;;;;;;;;;;6335680;22;20027;-86
2023/01/05 02:29:22;;;;;;;28.50;3.85;;;;;;;;;;6307815;22;47172;-85
2023/01/05 02:32:08;;;;;;;21.30;3.30;;;;;;;;;;6336628;22;20023;-85
2023/01/05 02:34:46;;;;;;;19.00;3.17;;;;;;;;;;6336691;22;20496;-85
2023/01/05 02:37:25;;;;;;;24.85;4.00;;;;;;;;;;6336720;22;20098;-85
2023/01/05 02:40:05;;;;;;;23.20;3.40;;;;;;;;;;6337030;22;20030;-85
2023/01/05 02:42:33;;;;;;;21.25;3.20;;;;;;;;;;6336552;22;20024;-87
2023/01/05 02:45:00;;;;;;;30.83;4.30;;;;;;;;;;6335812;22;20585;-85
2023/01/05 02:47:27;;;;;;;27.02;4.03;;;;;;;;;;6336212;22;20023;-85
2023/01/05 02:50:01;;;;;;;18.90;3.80;;;;;;;;;;6335671;22;20027;-86
2023/01/05 02:52:31;;;;;;;25.17;3.40;;;;;;;;;;6336557;22;20023;-86
2023/01/05 02:55:01;;;;;;;19.60;3.05;;;;;;;;;;6308569;22;20019;-85
2023/01/05 02:57:46;;;;;;;20.95;3.05;;;;;;;;;;6336760;22;20023;-85
2023/01/05 03:00:18;;;;;;;26.10;2.88;;;;;;;;;;6335527;22;20026;-86
2023/01/05 03:02:48;;;;;;;33.25;3.95;;;;;;;;;;6308291;22;20043;-84
2023/01/05 03:05:26;;;;;;;27.33;4.70;;;;;;;;;;6308866;22;20023;-85
2023/01/05 03:08:05;;;;;;;28.65;3.83;;;;;;;;;;6334981;22;20023;-86
2023/01/05 03:13:44;;;;;;;23.33;3.35;;;;;;;;;;6334454;22;20027;-85
2023/01/05 03:16:13;;;;;;;25.85;3.30;;;;;;;;;;6309190;22;20125;-85
2023/01/05 03:21:26;;;;;;;22.90;4.03;;;;;;;;;;6336090;22;20030;-84
2023/01/05 03:37:58;;;;;;;22.73;3.42;;;;;;;;;;6335899;22;20027;-85
2023/01/05 03:40:27;;;;;;;27.52;3.38;;;;;;;;;;6335939;22;20089;-85
2023/01/05 03:42:54;;;;;;;33.63;3.78;;;;;;;;;;6335164;22;20042;-86
2023/01/05 03:45:21;;;;;;;25.85;3.72;;;;;;;;;;6336107;22;20027;-84
2023/01/05 03:47:48;;;;;;;30.70;3.88;;;;;;;;;;6309213;22;20023;-85
2023/01/05 03:50:14;;;;;;;18.45;3.20;;;;;;;;;;6336318;22;20583;-84
2023/01/05 03:52:41;;;;;;;24.90;4.28;;;;;;;;;;6307485;22;20845;-86
2023/01/05 03:55:08;;;;;;;22.35;3.88;;;;;;;;;;6335850;22;20059;-86
2023/01/05 03:57:34;;;;;;;17.77;3.10;;;;;;;;;;6335789;22;20499;-85
2023/01/05 04:00:00;;;;;;;27.80;3.42;;;;;;;;;;6335444;22;20546;-85
2023/01/05 04:02:27;;;;;;;26.73;2.95;;;;;;;;;;6308774;22;20102;-84
2023/01/05 04:04:53;;;;;;;25.65;3.42;;;;;;;;;;6336901;22;20030;-85
2023/01/05 04:07:20;;;;;;;25.33;4.82;;;;;;;;;;6337269;22;20023;-85
2023/01/05 04:09:46;;;;;;;19.40;2.85;;;;;;;;;;6337922;22;20438;-85
2023/01/05 04:12:12;;;;;;;27.20;3.92;;;;;;;;;;6337439;22;20483;-86
2023/01/05 04:14:39;;;;;;;23.00;3.78;;;;;;;;;;6336939;22;20410;-86
2023/01/05 04:17:05;;;;;;;30.38;3.67;;;;;;;;;;6336858;22;20454;-85
2023/01/05 04:19:31;;;;;;;26.65;4.03;;;;;;;;;;6309125;22;20032;-85
2023/01/05 04:21:58;;;;;;;30.60;4.57;;;;;;;;;;6336847;22;20484;-86
2023/01/05 04:24:24;;;;;;;17.52;3.05;;;;;;;;;;6308730;22;20094;-85
2023/01/05 04:26:50;;;;;;;21.35;3.10;;;;;;;;;;6337342;22;20102;-85
2023/01/05 04:29:17;;;;;;;23.15;3.17;;;;;;;;;;6336860;22;20023;-85
2023/01/05 04:31:43;;;;;;;20.83;3.53;;;;;;;;;;6305726;22;20422;-85
2023/01/05 04:34:13;;;;;;;31.02;3.80;;;;;;;;;;6336903;22;20031;-84
2023/01/05 04:36:39;;;;;;;27.05;3.72;;;;;;;;;;6336055;22;20031;-84
2023/01/05 04:39:06;;;;;;;23.23;2.83;;;;;;;;;;6336198;22;20081;-85
2023/01/05 04:41:32;;;;;;;27.05;3.38;;;;;;;;;;6337026;22;20101;-84
2023/01/05 04:43:58;;;;;;;27.83;4.20;;;;;;;;;;6336973;22;20054;-85
2023/01/05 04:46:25;;;;;;;20.33;3.13;;;;;;;;;;6337274;22;20738;-85
2023/01/05 04:48:51;;;;;;;22.20;2.92;;;;;;;;;;6308357;22;20065;-84
2023/01/05 04:51:20;;;;;;;21.45;3.53;;;;;;;;;;6310547;22;20473;-85
2023/01/05 04:53:46;;;;;;;29.27;3.30;;;;;;;;;;6337065;22;20028;-84
2023/01/05 04:56:13;;;;;;;20.50;2.75;;;;;;;;;;6336588;22;20019;-85
2023/01/05 04:58:39;;;;;;;23.30;3.17;;;;;;;;;;6308621;22;20128;-86
2023/01/05 05:01:06;;;;;;;26.83;3.75;;;;;;;;;;6308394;22;20058;-85
2023/01/05 05:03:32;;;;;;;26.52;4.13;;;;;;;;;;6337157;22;20557;-84
2023/01/05 05:05:59;;;;;;;24.63;3.22;;;;;;;;;;6337269;22;20028;-84
2023/01/05 05:08:25;;;;;;;19.52;2.97;;;;;;;;;;6336162;22;20027;-84
2023/01/05 05:10:52;;;;;;;25.15;2.95;;;;;;;;;;6336540;22;20487;-85
2023/01/05 05:13:18;;;;;;;27.15;3.65;;;;;;;;;;6308735;22;20043;-86
2023/01/05 05:15:44;;;;;;;23.35;3.20;;;;;;;;;;6336604;22;20110;-87
2023/01/05 05:18:11;;;;;;;23.27;3.65;;;;;;;;;;6337071;22;20035;-85
2023/01/05 05:20:39;;;;;;;23.13;3.78;;;;;;;;;;6337564;22;20038;-85
2023/01/05 05:23:05;;;;;;;25.60;3.30;;;;;;;;;;6308167;22;20034;-84
2023/01/05 05:25:32;;;;;;;23.90;3.78;;;;;;;;;;6308053;22;20501;-84
2023/01/05 05:27:58;;;;;;;22.17;3.00;;;;;;;;;;6308896;22;20035;-84
2023/01/05 05:30:25;;;;;;;25.65;3.33;;;;;;;;;;6337060;22;20374;-85
2023/01/05 05:32:51;;;;;;;25.48;3.65;;;;;;;;;;6336889;22;20058;-85
2023/01/05 05:35:17;;;;;;;15.52;2.72;;;;;;;;;;6337098;22;20715;-85
2023/01/05 05:37:44;;;;;;;25.42;3.67;;;;;;;;;;6336070;22;20034;-82
2023/01/05 05:40:10;;;;;;;23.58;3.78;;;;;;;;;;6337123;22;20034;-84
2023/01/05 05:42:37;;;;;;;34.33;4.00;;;;;;;;;;6337286;22;20080;-84
2023/01/05 05:45:03;;;;;;;25.40;3.65;;;;;;;;;;6337369;22;20106;-84
2023/01/05 05:47:32;;;;;;;23.75;3.30;;;;;;;;;;6335898;22;20023;-86
2023/01/05 05:50:01;;;;;;;17.88;3.10;;;;;;;;;;6309883;22;20027;-83
2023/01/05 05:52:27;;;;;;;22.70;3.70;;;;;;;;;;6337511;22;20042;-86
2023/01/05 05:54:54;;;;;;;22.25;3.00;;;;;;;;;;6336942;22;20011;-83
2023/01/05 05:57:20;;;;;;;25.13;3.83;;;;;;;;;;6337489;22;20574;-84
2023/01/05 05:59:46;;;;;;;23.27;3.40;;;;;;;;;;6340043;22;20034;-85
2023/01/05 06:02:12;;;;;;;24.85;4.28;;;;;;;;;;6335903;22;20019;-86
2023/01/05 06:04:39;;;;;;;23.15;3.72;;;;;;;;;;6335860;22;20455;-82
2023/01/05 06:07:05;;;;;;;26.05;3.60;;;;;;;;;;6336049;22;20027;-84
2023/01/05 06:09:32;;;;;;;25.92;3.58;;;;;;;;;;6337024;22;20073;-85
2023/01/05 06:11:58;;;;;;;23.80;3.47;;;;;;;;;;6334961;22;20019;-85
2023/01/05 06:14:28;;;;;;;22.73;3.05;;;;;;;;;;6335709;22;20027;-86
2023/01/05 06:16:54;;;;;;;20.70;3.17;;;;;;;;;;6336333;22;20543;-84
2023/01/05 06:19:23;;;;;;;27.17;3.70;;;;;;;;;;6336552;22;20023;-85
2023/01/05 06:21:50;;;;;;;29.27;3.38;;;;;;;;;;6308159;22;20514;-85
2023/01/05 06:24:16;;;;;;;18.33;3.15;;;;;;;;;;6335123;22;20062;-85
2023/01/05 06:26:44;;;;;;;24.83;3.00;;;;;;;;;;6336391;22;20035;-84
2023/01/05 06:29:10;;;;;;;24.95;3.47;;;;;;;;;;6336445;22;20027;-83
2023/01/05 06:31:37;;;;;;;18.35;3.25;;;;;;;;;;6308508;22;20030;-85
2023/01/05 06:34:03;;;;;;;26.55;3.97;;;;;;;;;;6308201;22;20031;-85
2023/01/05 06:36:30;;;;;;;24.77;3.80;;;;;;;;;;6308591;22;20023;-84
2023/01/05 06:38:56;;;;;;;23.10;3.30;;;;;;;;;;6337408;22;20472;-84
2023/01/05 06:41:23;;;;;;;19.70;2.88;;;;;;;;;;6337028;22;20023;-85
2023/01/05 06:43:49;;;;;;;28.77;3.80;;;;;;;;;;6336781;22;20095;-83
2023/01/05 06:46:15;;;;;;;19.45;2.97;;;;;;;;;;6335541;22;20027;-83
2023/01/05 06:48:42;;;;;;;22.25;3.78;;;;;;;;;;6309311;22;20094;-83
2023/01/05 06:51:08;;;;;;;22.27;3.50;;;;;;;;;;6309096;22;20059;-83
2023/01/05 06:53:35;;;;;;;24.58;3.08;;;;;;;;;;6335389;22;20035;-84
2023/01/05 06:56:03;;;;;;;17.58;2.78;;;;;;;;;;6309329;22;20098;-84
2023/01/05 06:58:29;;;;;;;24.10;3.70;;;;;;;;;;6335233;22;20030;-84
2023/01/05 07:00:56;;;;;;;26.70;3.20;;;;;;;;;;6337315;22;20514;-84
2023/01/05 07:03:23;;;;;;;37.78;3.67;;;;;;;;;;6335712;22;20029;-83
2023/01/05 07:05:50;;;;;;;26.48;3.88;;;;;;;;;;6336482;22;20023;-84
2023/01/05 07:08:16;;;;;;;24.42;3.22;;;;;;;;;;6336218;22;20023;-83
2023/01/05 07:10:43;;;;;;;26.58;4.22;;;;;;;;;;6336870;22;20027;-83
2023/01/05 07:13:09;;;;;;;26.23;2.97;;;;;;;;;;6307718;22;20027;-83
2023/01/05 07:15:35;;;;;;;29.13;3.47;;;;;;;;;;6336151;22;20023;-85
2023/01/05 07:18:02;;;;;;;28.55;3.58;;;;;;;;;;6308911;22;20023;-84
2023/01/05 07:20:28;;;;;;;24.77;3.45;;;;;;;;;;6335350;22;20830;-84
2023/01/05 07:22:54;;;;;;;24.48;3.08;;;;;;;;;;6336600;22;20055;-84
2023/01/05 07:25:21;;;;;;;22.13;3.60;;;;;;;;;;6334891;22;20096;-84
2023/01/05 07:27:53;;;;;;;19.65;4.05;;;;;;;;;;6334525;22;20027;-83
2023/01/05 07:30:19;;;;;;;18.17;3.03;;;;;;;;;;6336368;22;20047;-85
2023/01/05 07:32:46;;;;;;;22.15;3.70;;;;;;;;;;6335594;22;20098;-84
2023/01/05 07:35:12;;;;;;;21.45;3.10;;;;;;;;;;6309432;22;20018;-85
2023/01/05 07:37:38;;;;;;;18.92;3.38;;;;;;;;;;6339345;22;20118;-85
2023/01/05 07:40:05;;;;;;;20.48;3.65;;;;;;;;;;6339161;22;20571;-85
2023/01/05 07:42:32;;;;;;;28.42;3.80;;;;;;;;;;6339966;22;20031;-85
2023/01/05 07:44:58;;;;;;;21.58;3.30;;;;;;;;;;6339472;22;20031;-85
2023/01/05 07:47:25;;;;;;;22.27;3.80;;;;;;;;;;6342904;22;20015;-85
2023/01/05 07:49:51;;;;;;;26.20;3.70;;;;;;;;;;6344178;22;20569;-85
2023/01/05 07:52:17;;;;;;;21.58;3.30;;;;;;;;;;6317093;22;20034;-85
2023/01/05 07:54:44;;;;;;;25.80;4.20;;;;;;;;;;6343510;22;20050;-86
2023/01/05 07:57:10;;;;;;;30.02;4.32;;;;;;;;;;6346092;22;20811;-86
2023/01/05 07:59:36;;;;;;;22.25;3.20;;;;;;;;;;6319551;22;20034;-86
2023/01/05 08:02:03;;;;;;;19.88;3.50;;;;;;;;;;6319136;22;20406;-86
2023/01/05 08:04:29;;;;;;;24.02;3.28;;;;;;;;;;6344454;22;20015;-85
2023/01/05 08:06:58;;;;;;;27.52;3.13;;;;;;;;;;6343368;22;20368;-85
2023/01/05 08:15:30;;;;;;;25.00;3.20;;;;;;;;;;6343809;22;21200;-86
2023/01/05 08:17:56;;;;;;;24.58;3.22;;;;;;;;;;6344265;22;20680;-85
2023/01/05 08:20:23;;;;;;;18.83;3.10;;;;;;;;;;6317134;22;20023;-86
2023/01/05 08:22:50;;;;;;;19.17;3.38;;;;;;;;;;6344171;22;20066;-86
2023/01/05 08:25:17;;;;;;;17.52;2.92;;;;;;;;;;6344793;22;20106;-83
2023/01/05 08:27:43;;;;;;;22.58;3.63;;;;;;;;;;6343517;22;20007;-85
2023/01/05 08:30:10;;;;;;;18.77;2.55;;;;;;;;;;6343398;22;20847;-85
2023/01/05 08:32:37;;;;;;;22.85;2.88;;;;;;;;;;6342237;22;20487;-85
2023/01/05 08:35:04;;;;;;;24.08;4.18;;;;;;;;;;6315777;22;20074;-85
2023/01/05 08:37:30;;;;;;;23.73;3.17;;;;;;;;;;6343259;22;20027;-86
2023/01/05 08:39:56;;;;;;;29.08;4.07;;;;;;;;;;6343724;22;20054;-85
2023/01/05 08:42:23;;;;;;;24.08;3.13;;;;;;;;;;6342093;22;20054;-86
2023/01/05 08:44:49;;;;;;;23.23;3.65;;;;;;;;;;6342766;22;20483;-85
2023/01/05 08:47:15;;;;;;;26.35;3.33;;;;;;;;;;6340626;22;20035;-86
2023/01/05 08:49:43;;;;;;;22.98;3.35;;;;;;;;;;6340911;22;20019;-86
2023/01/05 08:52:10;;;;;;;32.13;3.95;;;;;;;;;;6340560;22;20055;-84
2023/01/05 08:54:36;;;;;;;25.55;3.70;;;;;;;;;;6339011;22;20081;-84
2023/01/05 08:57:02;;;;;;;27.42;3.55;;;;;;;;;;6339458;22;20027;-85
2023/01/05 08:59:29;;;;;;;18.20;3.05;;;;;;;;;;6311884;22;20403;-85
2023/01/05 09:01:55;;;;;;;28.90;4.10;;;;;;;;;;6339149;22;20186;-85
2023/01/05 09:04:23;;;;;;;25.90;4.38;;;;;;;;;;6312090;22;20011;-85
2023/01/05 09:06:49;;;;;;;26.83;3.20;;;;;;;;;;6338871;22;20027;-84
2023/01/05 09:09:16;;;;;;;17.42;3.35;;;;;;;;;;6339446;22;20024;-86
2023/01/05 09:11:42;;;;;;;26.10;4.35;;;;;;;;;;6339475;22;20034;-86
2023/01/05 09:14:10;;;;;;;28.80;4.00;;;;;;;;;;6338628;22;20062;-86
2023/01/05 09:16:37;;;;;;;27.70;3.63;;;;;;;;;;6311454;22;20019;-86
2023/01/05 09:19:23;;;;;;;28.50;4.25;;;;;;;;;;6337802;22;20085;-85
2023/01/05 09:21:51;;;;;;;20.20;3.20;;;;;;;;;;6339527;22;20023;-86
2023/01/05 09:24:17;;;;;;;22.73;3.30;;;;;;;;;;6311796;22;20027;-86
2023/01/05 09:26:44;;;;;;;19.15;2.88;;;;;;;;;;6339713;22;20027;-84
2023/01/05 09:29:11;;;;;;;20.05;3.35;;;;;;;;;;6312361;22;20027;-85
2023/01/05 09:31:38;;;;;;;25.15;3.60;;;;;;;;;;6340082;22;20070;-86
2023/01/05 09:34:05;;;;;;;20.25;3.28;;;;;;;;;;6339791;22;20404;-86
2023/01/05 09:36:31;;;;;;;28.88;3.85;;;;;;;;;;6339387;22;20079;-85
2023/01/05 09:38:57;;;;;;;23.10;3.05;;;;;;;;;;6339616;22;20111;-86
2023/01/05 09:41:28;;;;;;;20.70;3.10;;;;;;;;;;6339760;22;20076;-86
2023/01/05 09:43:57;;;;;;;22.42;3.28;;;;;;;;;;6310696;22;20023;-86
2023/01/05 09:46:32;;;;;;;30.95;4.28;;;;;;;;;;6310132;22;20462;-86
2023/01/05 09:49:00;;;;;;;23.42;2.95;;;;;;;;;;6311895;22;20019;-84
2023/01/05 09:51:34;;;;;;;26.27;3.67;;;;;;;;;;6312722;22;20017;-85
2023/01/05 09:54:01;;;;;;;19.33;4.00;;;;;;;;;;6311848;22;20027;-85
2023/01/05 09:56:35;;;;;;;26.27;3.75;;;;;;;;;;6340068;22;20357;-84
2023/01/05 09:59:33;;;;;;;33.33;3.28;;;;;;;;;;6316958;22;20053;-87
2023/01/05 10:02:01;;;;;;;20.23;4.05;;;;;;;;;;6311784;22;20096;-84
2023/01/05 10:04:29;;;;;;;18.05;2.72;;;;;;;;;;6340346;22;20019;-85
2023/01/05 10:07:02;;;;;;;32.58;4.13;;;;;;;;;;6339304;22;20067;-86
2023/01/05 10:09:38;;;;;;;33.13;3.95;;;;;;;;;;6340122;22;20023;-85
2023/01/05 10:14:56;;;;;;;24.50;3.60;;;;;;;;;;6340199;22;20104;-85
2023/01/05 10:17:23;;;;;;;20.30;3.38;;;;;;;;;;6340188;22;20079;-84
2023/01/05 10:20:20;;;;;;;18.85;3.40;;;;;;;;;;6340743;22;20027;-85
2023/01/05 10:22:54;;;;;;;24.48;3.67;;;;;;;;;;6311888;22;20526;-85
2023/01/05 10:25:24;;;;;;;21.45;3.40;;;;;;;;;;6312263;22;20021;-84
2023/01/05 10:27:51;;;;;;;16.63;2.72;;;;;;;;;;6339559;22;20076;-85
2023/01/05 10:30:23;;;;;;;23.27;3.70;;;;;;;;;;6312500;22;20483;-85
2023/01/05 10:32:57;;;;;;;23.63;3.55;;;;;;;;;;6312201;22;20027;-85
2023/01/05 10:35:43;;;;;;;26.73;3.60;;;;;;;;;;6338436;22;20012;-84
2023/01/05 10:38:29;;;;;;;31.00;4.10;;;;;;;;;;6340251;22;20026;-85
2023/01/05 10:40:59;;;;;;;26.42;3.40;;;;;;;;;;6340841;22;20050;-80
2023/01/05 10:43:44;;;;;;;23.08;3.03;;;;;;;;;;6312581;22;20461;-84
2023/01/05 10:46:12;;;;;;;22.05;3.30;;;;;;;;;;6337669;22;20061;-84
2023/01/05 10:49:00;;;;;;;19.73;2.75;;;;;;;;;;6315413;22;20031;-83
2023/01/05 10:51:33;;;;;;;24.20;3.42;;;;;;;;;;6338667;22;20023;-83
2023/01/05 10:54:01;;;;;;;27.83;3.47;;;;;;;;;;6338453;22;20020;-84
2023/01/05 10:56:28;;;;;;;23.52;3.67;;;;;;;;;;6337063;22;20027;-83
2023/01/05 10:59:06;;;;;;;20.90;3.20;;;;;;;;;;6337774;22;20022;-83
2023/01/05 11:01:34;;;;;;;17.27;2.72;;;;;;;;;;6334848;22;20027;-85
2023/01/05 11:04:05;;;;;;;28.48;3.67;;;;;;;;;;6312409;22;20023;-85
2023/01/05 11:07:00;;;;;;;23.27;3.22;;;;;;;;;;6338885;22;20023;-82
2023/01/05 11:09:27;;;;;;;27.92;3.10;;;;;;;;;;6339264;22;20035;-85
2023/01/05 11:11:54;;;;;;;19.60;3.30;;;;;;;;;;6339430;22;20027;-83
2023/01/05 11:14:21;;;;;;;18.65;2.67;;;;;;;;;;6311957;22;20023;-85
2023/01/05 11:16:49;;;;;;;28.95;3.70;;;;;;;;;;6310150;22;20065;-86
2023/01/05 11:19:17;;;;;;;18.65;3.10;;;;;;;;;;6310594;22;20027;-83
2023/01/05 11:21:44;;;;;;;18.35;2.97;;;;;;;;;;6335977;22;20029;-86
2023/01/05 11:24:23;;;;;;;19.15;3.55;;;;;;;;;;6335931;22;20030;-83
2023/01/05 11:26:51;;;;;;;23.80;3.15;;;;;;;;;;6336935;22;20042;-83
2023/01/05 11:29:18;;;;;;;24.20;4.45;;;;;;;;;;6338132;22;20027;-84
2023/01/05 11:31:51;;;;;;;21.75;3.40;;;;;;;;;;6310862;22;20019;-82
2023/01/05 11:34:20;;;;;;;32.83;3.67;;;;;;;;;;6337815;22;20480;-84
2023/01/05 11:37:06;;;;;;;23.83;3.90;;;;;;;;;;6310999;22;20027;-82
2023/01/05 11:39:33;;;;;;;26.38;3.58;;;;;;;;;;6338363;22;20028;-83
2023/01/05 11:42:19;;;;;;;27.17;4.13;;;;;;;;;;6337087;22;20015;-83
2023/01/05 11:44:50;;;;;;;19.02;3.05;;;;;;;;;;6336388;22;20031;-82
2023/01/05 11:47:19;;;;;;;14.48;2.95;;;;;;;;;;6310013;22;20031;-81
2023/01/05 11:49:55;;;;;;;17.17;2.90;;;;;;;;;;6338575;22;20077;-83
2023/01/05 11:52:32;;;;;;;25.10;3.42;;;;;;;;;;6338058;22;20033;-83
2023/01/05 11:54:58;;;;;;;20.80;2.95;;;;;;;;;;6309088;22;20023;-82
2023/01/05 11:57:25;;;;;;;24.60;4.13;;;;;;;;;;6336849;22;20023;-84
2023/01/05 11:59:54;;;;;;;27.65;3.85;;;;;;;;;;6310017;22;20023;-81
2023/01/05 12:02:32;;;;;;;31.40;4.20;;;;;;;;;;6309809;22;20447;-85
2023/01/05 12:05:17;;;;;;;18.58;3.35;;;;;;;;;;6337130;22;20372;-83
2023/01/05 12:07:47;;;;;;;23.17;3.15;;;;;;;;;;6336886;22;20102;-83
2023/01/05 12:10:31;;;;;;;25.95;3.22;;;;;;;;;;6336737;22;20026;-84
2023/01/05 12:13:17;;;;;;;24.77;3.38;;;;;;;;;;6336520;22;20457;-83
2023/01/05 12:15:46;;;;;;;23.50;3.42;;;;;;;;;;6308782;22;20307;-82
2023/01/05 12:18:19;;;;;;;25.50;3.22;;;;;;;;;;6335026;22;20062;-84
2023/01/05 12:21:00;;;;;;;23.75;3.35;;;;;;;;;;6337061;22;20023;-84
2023/01/05 12:23:26;;;;;;;19.65;4.10;;;;;;;;;;6338446;22;20435;-83
2023/01/05 12:25:56;;;;;;;25.92;3.25;;;;;;;;;;6337896;22;20047;-83
2023/01/05 12:28:40;;;;;;;29.15;4.15;;;;;;;;;;6337093;22;20105;-83
2023/01/05 12:31:26;;;;;;;32.90;4.63;;;;;;;;;;6335883;22;20027;-83
2023/01/05 12:34:30;;;;;;;16.48;3.58;;;;;;;;;;6337658;22;20034;-84
2023/01/05 12:36:56;;;;;;;20.15;3.53;;;;;;;;;;6338476;22;20019;-84
2023/01/05 12:39:43;;;;;;;21.90;3.08;;;;;;;;;;6339093;22;20031;-84
2023/01/05 12:42:12;;;;;;;24.15;4.10;;;;;;;;;;6340879;22;20479;-82
2023/01/05 12:45:18;;;;;;;20.00;3.05;;;;;;;;;;6311953;22;20114;-85
2023/01/05 12:47:49;;;;;;;22.52;3.92;;;;;;;;;;6213346;22;20193;-86
2023/01/05 12:50:34;;;;;;;21.65;3.75;;;;;;;;;;6187221;23;20528;-86
2023/01/05 12:53:06;;;;;;;21.08;3.30;;;;;;;;;;6293688;22;20030;-85
2023/01/05 12:55:47;;;;;;;25.88;3.13;;;;;;;;;;6340815;22;20031;-86
2023/01/05 12:58:17;;;;;;;13.73;3.13;;;;;;;;;;6341101;22;20027;-84
2023/01/05 13:00:47;;;;;;;25.55;3.17;;;;;;;;;;6340266;22;20531;-80
2023/01/05 13:03:20;;;;;;;18.35;3.45;;;;;;;;;;6338410;22;20562;-86
2023/01/05 13:05:56;;;;;;;23.65;3.20;;;;;;;;;;6339781;22;20023;-83
2023/01/05 13:08:30;;;;;;;20.20;3.40;;;;;;;;;;6337829;22;20031;-82
2023/01/05 13:11:00;;;;;;;22.35;4.10;;;;;;;;;;6337124;22;20770;-79
2023/01/05 13:13:36;;;;;;;17.30;3.70;;;;;;;;;;6338155;22;20041;-79
2023/01/05 13:16:02;;;;;;;28.73;3.80;;;;;;;;;;6335974;22;20810;-78
2023/01/05 13:18:29;;;;;;;24.08;4.15;;;;;;;;;;6337555;22;20900;-80
2023/01/05 13:20:58;;;;;;;28.10;4.57;;;;;;;;;;6343840;22;20031;-84
2023/01/05 13:23:27;;;;;;;28.75;4.50;;;;;;;;;;6340439;22;20023;-83
2023/01/05 13:25:56;;;;;;;23.98;4.25;;;;;;;;;;6342583;22;20024;-80
2023/01/05 13:28:23;;;;;;;26.90;5.10;;;;;;;;;;6341480;22;20149;-83
2023/01/05 13:31:12;;;;;;;27.70;4.53;;;;;;;;;;6353594;22;20455;-80
2023/01/05 13:33:57;;;;;;;19.88;3.97;;;;;;;;;;6349360;22;20068;-82
2023/01/05 13:36:24;;;;;;;20.55;3.45;;;;;;;;;;6352039;22;20080;-84
2023/01/05 13:38:59;;;;;;;27.35;3.70;;;;;;;;;;6349350;22;20015;-82
2023/01/05 13:41:29;;;;;;;26.02;3.97;;;;;;;;;;6322637;22;20027;-80
2023/01/05 13:44:01;;;;;;;21.27;3.65;;;;;;;;;;6348876;22;20018;-83
2023/01/05 13:46:34;;;;;;;28.27;4.47;;;;;;;;;;6348935;22;20063;-81
2023/01/05 13:49:06;;;;;;;26.00;3.83;;;;;;;;;;6350797;22;20004;-83
2023/01/05 13:51:42;;;;;;;22.63;4.43;;;;;;;;;;6322711;22;20029;-81
2023/01/05 13:54:11;;;;;;;33.67;4.53;;;;;;;;;;6323205;22;20015;-81
2023/01/05 13:56:39;;;;;;;20.53;3.77;;;;;;;;;;6343587;22;20027;-81
2023/01/05 13:59:19;;;;;;;20.50;3.42;;;;;;;;;;6318270;22;20021;-83
2023/01/05 14:02:04;;;;;;;27.35;3.60;;;;;;;;;;6346384;22;20029;-81
2023/01/05 14:04:42;;;;;;;24.55;3.92;;;;;;;;;;6344462;22;20046;-80
2023/01/05 14:07:31;;;;;;;24.30;3.95;;;;;;;;;;6341096;22;20030;-80
2023/01/05 14:09:58;;;;;;;29.27;4.13;;;;;;;;;;6319734;22;20007;-81
2023/01/05 14:12:27;;;;;;;20.40;3.60;;;;;;;;;;6348035;22;20067;-83
2023/01/05 14:14:58;;;;;;;26.33;4.05;;;;;;;;;;6322179;22;20060;-79
2023/01/05 14:17:45;;;;;;;30.67;4.40;;;;;;;;;;6349079;22;20008;-82
2023/01/05 14:20:32;;;;;;;32.25;3.92;;;;;;;;;;6350388;22;20041;-81
2023/01/05 14:22:59;;;;;;;22.58;4.18;;;;;;;;;;6347787;22;20022;-80
2023/01/05 14:25:38;;;;;;;27.75;4.88;;;;;;;;;;6349760;22;20457;-81
2023/01/05 14:28:19;;;;;;;26.02;4.20;;;;;;;;;;6349670;22;20031;-81
2023/01/05 14:30:47;;;;;;;36.13;4.47;;;;;;;;;;6323217;22;20015;-83
2023/01/05 14:33:15;;;;;;;26.73;4.00;;;;;;;;;;6350233;22;20028;-82
2023/01/05 14:35:42;;;;;;;28.13;3.70;;;;;;;;;;6348506;22;20020;-81
2023/01/05 14:38:14;;;;;;;28.60;4.40;;;;;;;;;;6346086;22;20031;-80
2023/01/05 14:40:45;;;;;;;37.72;5.35;;;;;;;;;;6350636;22;20011;-82
2023/01/05 14:43:24;;;;;;;31.20;4.25;;;;;;;;;;6349825;22;20084;-82
2023/01/05 14:45:56;;;;;;;27.02;4.15;;;;;;;;;;6348396;22;20003;-82
2023/01/05 14:48:26;;;;;;;35.75;5.25;;;;;;;;;;6348957;22;20470;-82
2023/01/05 14:51:06;;;;;;;29.65;3.83;;;;;;;;;;6349727;22;20011;-82
2023/01/05 14:53:38;;;;;;;27.13;4.20;;;;;;;;;;6321982;22;20494;-81
2023/01/05 14:56:07;;;;;;;30.70;4.40;;;;;;;;;;6350037;22;20023;-83
2023/01/05 14:58:37;;;;;;;34.05;4.45;;;;;;;;;;6349300;22;20843;-80
2023/01/05 15:01:19;;;;;;;26.33;5.07;;;;;;;;;;6349276;22;20060;-83
2023/01/05 15:03:52;;;;;;;22.42;4.43;;;;;;;;;;6324530;22;20011;-81
2023/01/05 15:06:22;;;;;;;35.80;5.15;;;;;;;;;;6352417;22;20028;-81
2023/01/05 15:08:51;;;;;;;30.85;5.15;;;;;;;;;;6348532;22;20023;-80
2023/01/05 15:11:17;;;;;;;35.35;4.78;;;;;;;;;;6348886;22;20012;-84
2023/01/05 15:17:05;;;;;;;31.42;4.30;;;;;;;;;;6351431;22;20019;-79
2023/01/05 15:19:49;;;;;;;29.83;3.47;;;;;;;;;;6350042;22;20480;-81
2023/01/05 15:22:41;;;;;;;30.73;4.18;;;;;;;;;;6345718;22;20038;-80
2023/01/05 15:25:29;;;;;;;35.53;4.35;;;;;;;;;;6321611;22;20016;-80
2023/01/05 15:28:05;;;;;;;38.70;4.75;;;;;;;;;;6350731;22;20073;-80
2023/01/05 15:30:44;;;;;;;37.58;4.75;;;;;;;;;;6350522;22;20030;-80
2023/01/05 15:33:33;;;;;;;34.42;5.90;;;;;;;;;;6349903;22;20034;-83